Time;durP1;ratioP1;P1;durP2;ratioP2;P2;SDS_P1;SDS_P2;PMS_P1;PMS_P2;Temp;Humidity;BMP_temperature;BMP_pressure;BME280_temperature;BME280_humidity;BME280_pressure;Samples;Min_cycle;Max_cycle;Signal;HPM_P1;HPM_P2
2022/06/26 00:01:47;;;;;;;13.23;12.02;;;19.20;99.90;;;;;;5080582;28;20019;-50
2022/06/26 00:04:12;;;;;;;15.05;13.60;;;19.10;99.90;;;;;;5084703;28;20033;-48
2022/06/26 00:06:38;;;;;;;14.43;13.02;;;19.10;99.90;;;;;;5077607;28;20024;-49
2022/06/26 00:09:05;;;;;;;14.52;13.10;;;19.10;99.90;;;;;;5081580;28;20040;-53
2022/06/26 00:11:30;;;;;;;14.98;13.43;;;19.10;99.90;;;;;;5069459;28;20047;-53
2022/06/26 00:13:56;;;;;;;14.75;13.27;;;19.00;99.90;;;;;;5069556;28;20111;-54
2022/06/26 00:16:22;;;;;;;16.42;14.82;;;19.00;99.90;;;;;;5069291;28;20430;-53
2022/06/26 00:18:48;;;;;;;15.65;14.15;;;19.00;99.90;;;;;;5072554;28;20610;-51
2022/06/26 00:21:14;;;;;;;15.60;14.10;;;18.90;99.90;;;;;;5069715;28;20032;-51
2022/06/26 00:23:39;;;;;;;15.57;14.13;;;18.90;99.90;;;;;;5072328;28;20039;-51
2022/06/26 00:26:05;;;;;;;16.25;14.75;;;18.90;99.90;;;;;;5085636;28;20471;-54
2022/06/26 00:28:31;;;;;;;17.73;15.93;;;18.80;99.90;;;;;;5091587;28;20055;-53
2022/06/26 00:30:57;;;;;;;15.00;13.50;;;18.80;99.90;;;;;;5070468;28;20040;-54
2022/06/26 00:33:22;;;;;;;18.05;16.25;;;18.80;99.90;;;;;;5073503;28;20048;-53
2022/06/26 00:35:48;;;;;;;15.98;14.48;;;18.80;99.90;;;;;;5069801;28;20741;-52
2022/06/26 00:38:14;;;;;;;15.75;14.25;;;18.80;99.90;;;;;;5093185;28;20139;-55
2022/06/26 00:40:40;;;;;;;14.40;12.82;;;18.70;99.90;;;;;;5070489;28;20059;-52
2022/06/26 00:43:06;;;;;;;15.23;13.82;;;18.70;99.90;;;;;;5098610;28;20526;-52
2022/06/26 00:45:32;;;;;;;14.93;13.48;;;18.70;99.90;;;;;;5070284;28;20062;-50
2022/06/26 00:47:57;;;;;;;16.10;14.40;;;18.70;99.90;;;;;;5093654;28;20035;-51
2022/06/26 00:50:23;;;;;;;16.38;14.77;;;18.60;99.90;;;;;;5069921;28;20047;-51
2022/06/26 00:52:50;;;;;;;13.95;12.68;;;18.60;99.90;;;;;;5097450;28;20655;-52
2022/06/26 00:55:16;;;;;;;16.45;14.90;;;18.60;99.90;;;;;;5069999;28;20090;-53
2022/06/26 00:57:42;;;;;;;16.10;14.43;;;18.60;99.90;;;;;;5093216;28;20039;-51
2022/06/26 01:00:10;;;;;;;16.08;14.50;;;18.60;99.90;;;;;;5076447;28;20025;-50
2022/06/26 01:02:36;;;;;;;17.35;15.13;;;18.60;99.90;;;;;;5088894;28;20051;-51
2022/06/26 01:05:02;;;;;;;15.55;14.05;;;18.50;99.90;;;;;;5070474;28;20116;-52
2022/06/26 01:07:27;;;;;;;15.63;14.15;;;18.50;99.90;;;;;;5088569;28;20150;-50
2022/06/26 01:09:53;;;;;;;14.60;13.10;;;18.50;99.90;;;;;;5070642;28;20093;-55
2022/06/26 01:12:18;;;;;;;17.85;16.15;;;18.50;99.90;;;;;;5086154;28;20016;-55
2022/06/26 01:14:45;;;;;;;19.45;17.45;;;18.50;99.90;;;;;;5071095;27;20036;-53
2022/06/26 01:17:11;;;;;;;19.92;17.92;;;18.50;99.90;;;;;;5085173;28;20040;-50
2022/06/26 01:19:36;;;;;;;17.25;15.65;;;18.40;99.90;;;;;;5086986;28;20416;-51
2022/06/26 01:22:02;;;;;;;17.30;15.60;;;18.40;99.90;;;;;;5105983;28;20036;-52
2022/06/26 01:24:28;;;;;;;15.73;14.23;;;18.40;99.90;;;;;;5110901;28;20023;-55
2022/06/26 01:26:53;;;;;;;17.92;16.17;;;18.40;99.90;;;;;;5101093;28;20028;-54
2022/06/26 01:29:19;;;;;;;16.88;15.32;;;18.30;99.90;;;;;;5069341;28;20052;-53
2022/06/26 01:31:44;;;;;;;16.73;15.13;;;18.40;99.90;;;;;;5106163;28;20114;-55
2022/06/26 01:34:11;;;;;;;19.73;17.70;;;18.30;99.90;;;;;;5071179;28;20108;-50
2022/06/26 01:36:37;;;;;;;19.67;17.73;;;18.30;99.90;;;;;;5109213;28;20067;-52
2022/06/26 01:39:04;;;;;;;17.23;15.55;;;18.30;99.90;;;;;;5071768;27;20063;-52
2022/06/26 01:41:30;;;;;;;19.15;17.25;;;18.30;99.90;;;;;;5109318;28;20027;-52
2022/06/26 01:43:55;;;;;;;17.25;15.52;;;18.30;99.90;;;;;;5072504;28;20590;-51
2022/06/26 01:46:24;;;;;;;17.10;15.55;;;18.20;99.90;;;;;;5108954;28;20059;-52
2022/06/26 01:48:49;;;;;;;19.08;17.27;;;18.20;99.90;;;;;;5094169;28;20147;-51
2022/06/26 01:51:15;;;;;;;17.40;15.80;;;18.20;99.90;;;;;;5109990;28;20064;-50
2022/06/26 01:53:41;;;;;;;19.23;17.23;;;18.20;99.90;;;;;;5074699;28;20033;-52
2022/06/26 01:56:07;;;;;;;18.65;16.92;;;18.20;99.90;;;;;;5108619;28;20028;-55
2022/06/26 01:58:33;;;;;;;16.60;14.98;;;18.20;99.90;;;;;;5083749;28;20407;-50
2022/06/26 02:01:00;;;;;;;19.17;17.13;;;18.10;99.90;;;;;;5085300;28;20028;-53
2022/06/26 02:03:27;;;;;;;17.90;16.15;;;18.10;99.90;;;;;;5101278;28;20035;-54
2022/06/26 02:05:53;;;;;;;16.45;14.80;;;18.10;99.90;;;;;;5109360;28;20111;-53
2022/06/26 02:08:18;;;;;;;19.85;18.00;;;18.10;99.90;;;;;;5100811;27;20134;-55
2022/06/26 02:13:36;;;;;;;18.20;16.40;;;18.00;99.90;;;;;;5090389;28;20034;-54
2022/06/26 02:16:07;;;;;;;17.33;15.50;;;18.00;99.90;;;;;;5069215;28;20033;-56
2022/06/26 02:18:33;;;;;;;18.80;16.90;;;18.00;99.90;;;;;;5096003;28;20072;-54
2022/06/26 02:21:00;;;;;;;18.90;17.10;;;18.00;99.90;;;;;;5089792;28;20028;-56
2022/06/26 02:23:26;;;;;;;18.05;16.35;;;18.00;99.90;;;;;;5106656;28;20120;-54
2022/06/26 02:25:52;;;;;;;20.73;18.73;;;18.00;99.90;;;;;;5091472;28;20514;-56
2022/06/26 02:28:17;;;;;;;18.30;16.50;;;17.90;99.90;;;;;;5096815;28;20055;-54
2022/06/26 02:30:44;;;;;;;18.35;16.65;;;17.90;99.90;;;;;;5089512;28;20442;-56
2022/06/26 02:33:10;;;;;;;18.42;16.63;;;17.90;99.90;;;;;;5106800;28;20047;-57
2022/06/26 02:35:35;;;;;;;18.02;16.30;;;17.90;99.90;;;;;;5089135;28;20515;-54
2022/06/26 02:38:01;;;;;;;20.92;18.92;;;17.90;99.90;;;;;;5106371;28;20047;-55
2022/06/26 02:40:29;;;;;;;18.38;16.58;;;17.90;99.90;;;;;;5109406;28;20032;-56
2022/06/26 02:42:54;;;;;;;17.88;16.17;;;17.90;99.90;;;;;;5092674;28;20479;-52
2022/06/26 02:45:21;;;;;;;18.38;16.58;;;17.80;99.90;;;;;;5109496;28;20091;-55
2022/06/26 02:47:47;;;;;;;17.25;15.55;;;17.80;99.90;;;;;;5091599;27;20106;-54
2022/06/26 02:50:13;;;;;;;19.60;17.70;;;17.80;99.90;;;;;;5109022;28;20019;-56
2022/06/26 02:52:39;;;;;;;20.10;17.35;;;17.80;99.90;;;;;;5090627;28;20036;-56
2022/06/26 02:55:05;;;;;;;18.73;16.65;;;17.80;99.90;;;;;;5109127;28;20037;-56
2022/06/26 02:57:31;;;;;;;16.95;15.30;;;17.80;99.90;;;;;;5089041;28;20119;-55
2022/06/26 02:59:56;;;;;;;18.73;16.90;;;17.80;99.90;;;;;;5094577;28;20099;-56
2022/06/26 03:02:24;;;;;;;17.65;15.82;;;17.80;99.90;;;;;;5087062;28;20031;-56
2022/06/26 03:04:51;;;;;;;18.33;16.45;;;17.80;99.90;;;;;;5109365;28;20027;-56
2022/06/26 03:07:16;;;;;;;18.42;16.63;;;17.90;99.90;;;;;;5088720;28;20024;-55
2022/06/26 03:09:42;;;;;;;17.50;15.85;;;17.90;99.90;;;;;;5106755;28;20038;-57
2022/06/26 03:12:07;;;;;;;19.48;16.77;;;17.90;99.90;;;;;;5088969;28;20028;-57
2022/06/26 03:14:33;;;;;;;18.25;16.55;;;17.90;99.90;;;;;;5067486;28;20051;-56
2022/06/26 03:16:59;;;;;;;19.45;17.52;;;17.90;99.90;;;;;;5107074;28;20123;-57
2022/06/26 03:19:24;;;;;;;18.95;16.95;;;18.00;99.90;;;;;;5069633;28;20032;-54
2022/06/26 03:21:50;;;;;;;19.35;17.30;;;18.00;99.90;;;;;;5107131;28;20027;-56
2022/06/26 03:24:15;;;;;;;18.95;16.90;;;18.00;99.90;;;;;;5071067;28;20482;-55
2022/06/26 03:26:41;;;;;;;19.25;17.25;;;18.10;99.90;;;;;;5098624;28;20035;-56
2022/06/26 03:29:09;;;;;;;18.77;16.92;;;18.10;99.90;;;;;;5076774;28;20040;-57
2022/06/26 03:31:35;;;;;;;18.55;16.65;;;18.10;99.90;;;;;;5107839;28;20111;-54
2022/06/26 03:34:01;;;;;;;22.20;20.10;;;18.20;99.90;;;;;;5073811;28;20512;-55
2022/06/26 03:36:27;;;;;;;18.98;17.20;;;18.20;99.90;;;;;;5111325;28;20059;-57
2022/06/26 03:38:54;;;;;;;18.75;16.83;;;18.30;99.90;;;;;;5078649;28;20412;-55
2022/06/26 03:41:20;;;;;;;20.58;18.58;;;18.40;99.90;;;;;;5111570;28;20038;-57
2022/06/26 03:43:45;;;;;;;21.67;19.48;;;18.70;99.90;;;;;;5101836;28;20066;-55
2022/06/26 03:46:11;;;;;;;20.02;18.02;;;19.20;99.90;;;;;;5092992;28;20055;-55
2022/06/26 03:48:37;;;;;;;18.25;16.55;;;19.70;99.90;;;;;;5109663;28;20042;-56
2022/06/26 03:51:04;;;;;;;18.27;16.58;;;20.20;99.90;;;;;;5092674;28;20466;-55
2022/06/26 03:53:30;;;;;;;19.52;17.52;;;20.70;99.90;;;;;;5109695;28;20526;-56
2022/06/26 03:55:56;;;;;;;17.08;15.48;;;21.20;99.90;;;;;;5092720;28;20108;-57
2022/06/26 03:58:21;;;;;;;15.77;14.18;;;21.70;99.90;;;;;;5109741;28;20523;-56
2022/06/26 04:00:47;;;;;;;15.00;13.60;;;22.20;99.90;;;;;;5098164;28;20020;-55
2022/06/26 04:03:12;;;;;;;13.75;12.55;;;22.70;99.90;;;;;;5109708;28;20032;-56
2022/06/26 04:05:38;;;;;;;15.00;13.65;;;23.20;99.90;;;;;;5112508;28;20422;-54
2022/06/26 04:08:05;;;;;;;16.98;15.30;;;23.60;99.90;;;;;;5095009;28;20015;-56
2022/06/26 04:10:31;;;;;;;14.85;13.45;;;23.90;99.90;;;;;;5108701;28;20078;-53
2022/06/26 04:13:00;;;;;;;15.85;14.38;;;24.30;99.90;;;;;;5109426;28;20024;-57
2022/06/26 04:15:30;;;;;;;12.82;11.73;;;24.60;99.90;;;;;;5112433;28;20034;-56
2022/06/26 04:17:56;;;;;;;14.52;13.10;;;25.10;99.90;;;;;;5092782;28;20134;-54
2022/06/26 04:20:22;;;;;;;14.75;13.43;;;25.50;99.90;;;;;;5110769;28;20110;-56
2022/06/26 04:22:59;;;;;;;13.35;12.05;;;25.90;99.90;;;;;;5092100;28;20483;-56
2022/06/26 04:25:25;;;;;;;12.55;11.32;;;26.40;97.20;;;;;;5112066;28;20135;-57
2022/06/26 04:27:51;;;;;;;12.90;11.73;;;26.70;96.20;;;;;;5102353;28;20583;-56
2022/06/26 04:30:17;;;;;;;12.57;11.35;;;27.00;91.30;;;;;;5070036;28;20116;-57
2022/06/26 04:32:43;;;;;;;13.95;12.63;;;27.20;90.30;;;;;;5107591;28;20043;-57
2022/06/26 04:35:09;;;;;;;12.40;11.30;;;27.50;83.40;;;;;;5110740;28;20059;-57
2022/06/26 04:37:36;;;;;;;12.65;11.45;;;27.80;83.00;;;;;;5090362;28;20051;-59
2022/06/26 04:40:02;;;;;;;12.48;11.27;;;28.20;70.20;;;;;;5108576;28;20170;-58
2022/06/26 04:42:28;;;;;;;11.23;10.23;;;28.50;77.50;;;;;;5090435;28;20082;-58
2022/06/26 04:44:53;;;;;;;11.30;10.20;;;28.80;71.40;;;;;;5069996;28;20029;-57
2022/06/26 04:47:19;;;;;;;10.68;9.77;;;29.10;69.10;;;;;;5108883;28;20104;-58
2022/06/26 04:49:44;;;;;;;9.68;8.88;;;29.40;66.40;;;;;;5082089;28;20027;-58
2022/06/26 04:52:10;;;;;;;11.20;10.20;;;29.80;64.10;;;;;;5089980;28;20028;-58
2022/06/26 04:54:35;;;;;;;11.20;10.10;;;30.10;60.00;;;;;;5075547;28;20072;-59
2022/06/26 04:57:01;;;;;;;9.20;8.48;;;30.50;57.10;;;;;;5108801;28;20088;-56
2022/06/26 04:59:26;;;;;;;9.95;9.15;;;30.90;54.70;;;;;;5078026;28;20033;-54
2022/06/26 05:01:52;;;;;;;10.02;9.02;;;31.40;53.20;;;;;;5102537;28;20024;-54
2022/06/26 05:04:17;;;;;;;8.85;8.15;;;31.90;50.30;;;;;;5081764;28;20040;-56
2022/06/26 05:06:43;;;;;;;8.68;7.90;;;32.40;46.10;;;;;;5108946;28;20028;-53
2022/06/26 05:09:08;;;;;;;9.15;8.13;;;32.60;43.40;;;;;;5076318;28;20063;-55
2022/06/26 05:11:34;;;;;;;7.85;7.25;;;33.10;41.50;;;;;;5096275;28;20030;-56
2022/06/26 05:13:59;;;;;;;8.68;7.97;;;33.50;38.60;;;;;;5107265;28;20031;-55
2022/06/26 05:16:25;;;;;;;8.63;7.70;;;33.70;34.50;;;;;;5090092;28;20043;-56
2022/06/26 05:18:50;;;;;;;8.45;7.72;;;34.10;31.90;;;;;;5107107;28;20055;-55
2022/06/26 05:21:16;;;;;;;9.20;8.30;;;34.20;30.50;;;;;;5088734;28;20062;-56
2022/06/26 05:23:41;;;;;;;8.73;7.93;;;34.40;29.40;;;;;;5094847;28;20027;-53
2022/06/26 05:26:07;;;;;;;8.82;8.02;;;34.70;27.40;;;;;;5105605;28;20027;-49
2022/06/26 05:28:33;;;;;;;7.75;6.85;;;35.20;24.10;;;;;;5055933;28;1012777;-52
2022/06/26 05:30:58;;;;;;;8.85;8.15;;;35.70;22.20;;;;;;5109558;28;20036;-56
2022/06/26 05:33:24;;;;;;;7.53;6.93;;;35.60;21.10;;;;;;5092960;28;20019;-55
2022/06/26 05:35:49;;;;;;;8.15;7.38;;;35.50;20.30;;;;;;5110941;28;20395;-53
2022/06/26 05:38:15;;;;;;;7.03;6.53;;;35.80;19.10;;;;;;5092036;28;20039;-54
2022/06/26 05:40:40;;;;;;;7.88;7.15;;;36.20;18.50;;;;;;5110426;28;20503;-53
2022/06/26 05:43:06;;;;;;;7.68;7.00;;;35.90;17.70;;;;;;5090697;28;20047;-54
2022/06/26 05:45:32;;;;;;;7.68;7.00;;;35.70;16.70;;;;;;5110376;28;20019;-50
2022/06/26 05:47:57;;;;;;;7.60;6.90;;;35.80;16.40;;;;;;5089055;28;20039;-52
2022/06/26 05:50:23;;;;;;;7.43;6.82;;;36.00;15.60;;;;;;5110373;28;20026;-56
2022/06/26 05:52:49;;;;;;;6.53;5.95;;;36.20;14.90;;;;;;5090663;28;20492;-56
2022/06/26 05:55:14;;;;;;;7.55;6.82;;;36.50;14.20;;;;;;5107381;28;20027;-56
2022/06/26 05:57:39;;;;;;;7.95;7.20;;;37.30;12.70;;;;;;5089664;28;20496;-54
2022/06/26 06:00:06;;;;;;;8.13;7.43;;;37.10;11.50;;;;;;5082825;28;20030;-56
2022/06/26 06:02:32;;;;;;;7.28;6.65;;;37.50;11.30;;;;;;5090471;28;20036;-54
2022/06/26 06:04:58;;;;;;;7.85;7.05;;;37.40;11.00;;;;;;5073095;28;20111;-55
2022/06/26 06:07:24;;;;;;;6.65;6.15;;;37.20;10.50;;;;;;5104032;28;20495;-52
2022/06/26 06:09:50;;;;;;;7.13;6.47;;;37.90;9.90;;;;;;5073065;28;20033;-54
2022/06/26 06:12:16;;;;;;;7.00;6.40;;;38.20;8.90;;;;;;5070396;28;20031;-54
2022/06/26 06:14:41;;;;;;;6.57;6.07;;;38.60;8.30;;;;;;5069873;28;20060;-55
2022/06/26 06:19:51;;;;;;;5.83;5.43;;;39.80;5.90;;;;;;5074219;28;20039;-56
2022/06/26 06:22:17;;;;;;;7.32;6.63;;;40.50;5.10;;;;;;5080043;28;20048;-55
2022/06/26 06:24:42;;;;;;;5.63;5.13;;;40.50;3.90;;;;;;5075017;28;20511;-54
2022/06/26 06:27:08;;;;;;;6.68;6.07;;;40.40;4.20;;;;;;5101018;28;20038;-54
2022/06/26 06:29:33;;;;;;;6.20;5.70;;;40.80;3.30;;;;;;5086961;28;20469;-56
2022/06/26 06:31:59;;;;;;;6.10;5.60;;;41.20;2.50;;;;;;5082804;28;20102;-54
2022/06/26 06:34:24;;;;;;;5.88;5.43;;;41.20;1.40;;;;;;5072687;28;20056;-56
2022/06/26 06:36:50;;;;;;;5.63;5.18;;;40.50;1.50;;;;;;5081903;28;20044;-55
2022/06/26 06:39:15;;;;;;;5.40;4.90;;;40.80;1.70;;;;;;5074871;28;20457;-56
2022/06/26 06:41:41;;;;;;;4.90;4.50;;;41.20;1.20;;;;;;5074470;28;20029;-55
2022/06/26 06:44:06;;;;;;;4.97;4.53;;;41.70;1.00;;;;;;5094983;28;20501;-55
2022/06/26 06:46:32;;;;;;;5.10;4.65;;;41.90;1.00;;;;;;5099412;28;20031;-55
2022/06/26 06:48:57;;;;;;;5.20;4.75;;;42.40;1.00;;;;;;5107044;28;20681;-56
2022/06/26 06:51:23;;;;;;;5.05;4.47;;;42.50;1.00;;;;;;5109406;28;20034;-54
2022/06/26 06:53:49;;;;;;;4.78;4.38;;;42.50;1.00;;;;;;5093476;28;20084;-56
2022/06/26 06:56:14;;;;;;;4.72;4.28;;;42.80;1.00;;;;;;5109221;28;20066;-53
2022/06/26 06:58:40;;;;;;;3.90;3.67;;;43.30;1.00;;;;;;5091782;28;20081;-56
2022/06/26 07:01:05;;;;;;;4.55;4.20;;;43.80;1.00;;;;;;5089227;28;20495;-56
2022/06/26 07:03:31;;;;;;;4.65;4.30;;;44.10;1.00;;;;;;5106389;28;20027;-52
2022/06/26 07:05:56;;;;;;;5.00;4.60;;;43.80;1.00;;;;;;5109363;28;20098;-54
2022/06/26 07:08:22;;;;;;;5.18;4.78;;;43.80;1.00;;;;;;5088699;28;20047;-56
2022/06/26 07:10:47;;;;;;;4.28;3.90;;;44.10;1.00;;;;;;5103068;28;20042;-56
2022/06/26 07:13:13;;;;;;;4.40;4.10;;;43.80;1.00;;;;;;5105886;28;20031;-56
2022/06/26 07:15:38;;;;;;;4.45;4.15;;;43.70;1.00;;;;;;5109170;28;20447;-53
2022/06/26 07:18:04;;;;;;;3.80;3.58;;;44.10;1.00;;;;;;5089001;28;20036;-56
2022/06/26 07:20:29;;;;;;;5.18;4.00;;;44.10;1.00;;;;;;5067442;28;20025;-55
2022/06/26 07:22:55;;;;;;;3.78;3.28;;;44.70;1.00;;;;;;5107640;28;20028;-53
2022/06/26 07:25:21;;;;;;;4.10;3.80;;;44.90;1.00;;;;;;5069036;28;20424;-53
2022/06/26 07:27:47;;;;;;;4.10;3.63;;;45.20;1.00;;;;;;5092705;28;20403;-57
2022/06/26 07:30:13;;;;;;;3.85;3.58;;;45.30;1.00;;;;;;5073508;28;20032;-56
2022/06/26 07:32:38;;;;;;;3.65;3.30;;;45.80;1.00;;;;;;5107577;28;20032;-54
2022/06/26 07:35:04;;;;;;;3.40;3.10;;;45.90;1.00;;;;;;5073339;28;20054;-56
2022/06/26 07:37:30;;;;;;;3.83;3.50;;;45.50;1.00;;;;;;5107628;28;20127;-57
2022/06/26 07:39:56;;;;;;;3.35;3.00;;;44.50;1.00;;;;;;5073446;28;20415;-53
2022/06/26 07:42:22;;;;;;;3.50;3.20;;;44.50;1.00;;;;;;5107250;28;20040;-50
2022/06/26 07:44:47;;;;;;;4.20;3.80;;;43.50;1.00;;;;;;5074536;28;20433;-55
2022/06/26 07:47:13;;;;;;;3.92;3.63;;;42.90;1.00;;;;;;5107414;28;20108;-61
2022/06/26 07:49:38;;;;;;;4.25;3.80;;;41.90;1.00;;;;;;5075583;28;20082;-60
2022/06/26 07:52:04;;;;;;;3.63;3.33;;;41.40;1.00;;;;;;5107387;28;20107;-60
2022/06/26 07:54:29;;;;;;;3.88;3.58;;;41.50;1.00;;;;;;5096459;28;20494;-61
2022/06/26 07:56:55;;;;;;;3.72;3.30;;;40.90;1.00;;;;;;5088581;28;20090;-60
2022/06/26 07:59:20;;;;;;;3.30;3.08;;;41.70;1.00;;;;;;5105307;28;20035;-59
2022/06/26 08:01:46;;;;;;;3.30;3.10;;;42.70;1.00;;;;;;5081422;28;20466;-60
2022/06/26 08:04:11;;;;;;;4.03;3.40;;;42.70;1.00;;;;;;5105671;28;20024;-60
2022/06/26 08:06:37;;;;;;;3.35;3.13;;;41.10;1.00;;;;;;5108589;28;20620;-60
2022/06/26 08:09:03;;;;;;;3.90;3.60;;;42.00;1.00;;;;;;5092287;28;20039;-60
2022/06/26 08:11:28;;;;;;;3.65;3.35;;;42.40;1.00;;;;;;5097015;28;20055;-59
2022/06/26 08:13:54;;;;;;;3.72;3.42;;;42.80;1.00;;;;;;5105073;28;20558;-58
2022/06/26 08:16:20;;;;;;;3.83;3.53;;;43.10;1.00;;;;;;5108452;28;20023;-59
2022/06/26 08:18:46;;;;;;;3.88;3.58;;;43.00;1.00;;;;;;5089496;28;20032;-59
2022/06/26 08:23:55;;;;;;;3.87;3.63;;;42.60;1.00;;;;;;5078586;28;20034;-59
2022/06/26 08:26:21;;;;;;;4.47;4.07;;;42.20;1.00;;;;;;5105637;28;20028;-58
2022/06/26 08:28:47;;;;;;;5.00;3.92;;;41.50;1.00;;;;;;5108620;28;20047;-59
2022/06/26 08:31:13;;;;;;;3.92;3.63;;;40.90;1.00;;;;;;5112376;28;20411;-59
2022/06/26 08:33:38;;;;;;;4.15;3.78;;;40.80;1.00;;;;;;5091368;28;20024;-59
2022/06/26 08:36:04;;;;;;;4.20;3.90;;;40.90;1.00;;;;;;5112280;28;20035;-59
2022/06/26 08:38:30;;;;;;;4.53;4.13;;;40.80;1.00;;;;;;5089560;28;20036;-58
2022/06/26 08:40:59;;;;;;;4.25;3.92;;;41.10;1.00;;;;;;5111837;28;20016;-59
2022/06/26 08:43:25;;;;;;;4.68;4.28;;;41.20;1.00;;;;;;5091660;28;20028;-59
2022/06/26 08:45:55;;;;;;;4.88;4.50;;;41.00;1.00;;;;;;5109530;28;20024;-60
2022/06/26 08:48:24;;;;;;;5.00;4.45;;;40.30;1.00;;;;;;5091223;28;20028;-59
2022/06/26 08:50:50;;;;;;;3.65;3.45;;;39.90;1.00;;;;;;5070109;28;20024;-59
2022/06/26 08:53:16;;;;;;;4.32;3.92;;;39.90;1.00;;;;;;5110278;28;20019;-59
2022/06/26 08:55:42;;;;;;;5.10;4.00;;;39.60;1.00;;;;;;5071401;28;20032;-59
2022/06/26 08:58:08;;;;;;;4.50;4.07;;;39.60;1.00;;;;;;5110401;28;20043;-59
2022/06/26 09:00:34;;;;;;;4.32;4.03;;;39.30;1.00;;;;;;5068356;28;20056;-59
2022/06/26 09:02:59;;;;;;;4.07;3.78;;;39.00;1.00;;;;;;5084935;28;20056;-59
2022/06/26 09:05:25;;;;;;;5.00;4.60;;;38.90;1.00;;;;;;5085301;28;20039;-60
2022/06/26 09:07:52;;;;;;;5.20;4.70;;;38.40;1.00;;;;;;5110230;28;20035;-59
2022/06/26 09:10:19;;;;;;;4.40;4.00;;;37.40;1.00;;;;;;5080562;28;20023;-59
2022/06/26 09:12:52;;;;;;;4.38;3.97;;;36.70;1.20;;;;;;5110530;28;20499;-59
2022/06/26 09:15:19;;;;;;;3.80;3.50;;;36.60;1.40;;;;;;5086633;28;20127;-59
2022/06/26 09:17:55;;;;;;;4.03;3.70;;;37.00;1.30;;;;;;5082167;28;20036;-59
2022/06/26 09:20:21;;;;;;;4.03;3.72;;;37.20;1.00;;;;;;5073894;28;20526;-59
2022/06/26 09:22:54;;;;;;;3.75;3.38;;;36.20;1.40;;;;;;5076391;28;20036;-59
2022/06/26 09:25:20;;;;;;;3.60;3.40;;;36.10;1.70;;;;;;5065838;28;20550;-59
2022/06/26 09:27:45;;;;;;;3.70;3.40;;;36.50;1.50;;;;;;5081394;28;20031;-59
2022/06/26 09:30:11;;;;;;;3.38;3.15;;;36.70;1.30;;;;;;5078846;28;20024;-59
2022/06/26 09:32:36;;;;;;;3.97;3.33;;;36.90;1.00;;;;;;5079299;28;20032;-59
2022/06/26 09:35:02;;;;;;;3.72;3.42;;;36.60;1.00;;;;;;5081843;28;20062;-59
2022/06/26 09:37:36;;;;;;;3.85;3.47;;;36.80;1.00;;;;;;5087879;28;20583;-59
2022/06/26 09:40:04;;;;;;;4.20;3.80;;;36.30;1.00;;;;;;5081615;28;20032;-59
2022/06/26 09:42:33;;;;;;;7.40;4.03;;;35.80;1.80;;;;;;5078586;28;20024;-59
2022/06/26 09:45:01;;;;;;;8.27;3.45;;;35.80;1.70;;;;;;5090163;28;20031;-59
2022/06/26 09:47:28;;;;;;;3.83;3.40;;;35.50;1.60;;;;;;5076086;28;20024;-59
2022/06/26 09:49:56;;;;;;;5.60;3.60;;;35.30;1.90;;;;;;5088299;28;20039;-59
2022/06/26 09:52:25;;;;;;;3.40;3.20;;;35.50;1.50;;;;;;5076057;28;20404;-59
2022/06/26 09:54:52;;;;;;;4.07;3.67;;;35.60;1.00;;;;;;5086977;28;20036;-59
2022/06/26 09:57:17;;;;;;;3.60;3.30;;;35.40;1.00;;;;;;5074980;28;20054;-58
2022/06/26 09:59:43;;;;;;;3.38;3.05;;;35.50;1.00;;;;;;5084844;28;20031;-58
2022/06/26 10:07:51;;;;;;;3.92;3.63;;;35.30;1.00;;;;;;5076278;28;20499;-58
2022/06/26 10:10:19;;;;;;;4.03;3.45;;;34.90;1.00;;;;;;5085402;28;20097;-58
2022/06/26 10:12:49;;;;;;;4.20;3.90;;;35.10;1.00;;;;;;5089454;28;20496;-57
2022/06/26 10:15:18;;;;;;;4.18;3.85;;;35.10;1.00;;;;;;5075643;28;20054;-58
2022/06/26 10:17:56;;;;;;;5.78;4.90;;;34.80;1.50;;;;;;5087923;28;20044;-58
2022/06/26 10:20:23;;;;;;;4.50;4.10;;;34.20;2.50;;;;;;5068775;28;20408;-57
2022/06/26 10:22:49;;;;;;;4.15;3.72;;;34.00;2.60;;;;;;5072029;28;20016;-58
2022/06/26 10:25:23;;;;;;;4.35;4.00;;;33.80;2.80;;;;;;5079254;28;20035;-58
2022/06/26 10:27:49;;;;;;;5.03;4.53;;;33.60;2.80;;;;;;5079009;28;20047;-58
2022/06/26 10:30:18;;;;;;;4.47;3.80;;;32.90;3.70;;;;;;5098625;28;20306;-57
2022/06/26 10:32:44;;;;;;;4.15;3.55;;;33.00;4.10;;;;;;5088039;28;20027;-57
2022/06/26 10:35:11;;;;;;;5.82;3.72;;;33.20;3.60;;;;;;5106800;28;20084;-57
2022/06/26 10:37:45;;;;;;;3.13;2.92;;;33.40;2.70;;;;;;5089400;28;20024;-56
2022/06/26 10:40:13;;;;;;;3.53;3.22;;;33.60;3.00;;;;;;5106988;28;20046;-57
2022/06/26 10:42:53;;;;;;;3.90;3.47;;;33.20;2.70;;;;;;5089245;28;20028;-57
2022/06/26 10:45:28;;;;;;;5.03;3.78;;;33.00;3.10;;;;;;5090534;28;20470;-58
2022/06/26 10:47:59;;;;;;;4.35;3.63;;;32.90;3.30;;;;;;5068867;28;20122;-58
2022/06/26 10:50:41;;;;;;;4.05;3.65;;;32.80;3.90;;;;;;5081473;28;20048;-57
2022/06/26 10:53:15;;;;;;;4.40;4.00;;;33.00;3.40;;;;;;5068817;28;20035;-56
2022/06/26 10:55:43;;;;;;;4.18;3.75;;;32.90;3.00;;;;;;5077482;28;20033;-58
2022/06/26 10:58:15;;;;;;;4.13;3.67;;;32.70;3.20;;;;;;5108492;28;20032;-57
2022/06/26 11:00:40;;;;;;;4.32;3.92;;;32.60;3.50;;;;;;5062861;28;20032;-56
2022/06/26 11:03:14;;;;;;;4.10;3.70;;;32.60;3.90;;;;;;5107730;28;20068;-58
2022/06/26 11:05:52;;;;;;;4.03;3.55;;;32.60;4.00;;;;;;5067105;28;20035;-57
2022/06/26 11:08:36;;;;;;;4.75;4.18;;;32.50;4.40;;;;;;5068506;28;20118;-57
2022/06/26 11:11:09;;;;;;;3.65;3.35;;;32.30;5.90;;;;;;5080376;28;20451;-57
2022/06/26 11:13:46;;;;;;;4.38;3.92;;;32.30;4.80;;;;;;5068700;28;20025;-57
2022/06/26 11:16:12;;;;;;;4.47;3.63;;;32.50;5.30;;;;;;5066346;28;20032;-57
2022/06/26 11:18:37;;;;;;;4.22;3.85;;;32.60;5.40;;;;;;5107481;28;20036;-56
2022/06/26 11:21:04;;;;;;;4.55;4.15;;;32.60;5.20;;;;;;5070235;28;20040;-58
2022/06/26 11:23:32;;;;;;;3.60;3.30;;;32.50;4.70;;;;;;5107846;28;20567;-55
2022/06/26 11:26:08;;;;;;;3.92;3.63;;;32.30;4.60;;;;;;5073062;28;20031;-57
2022/06/26 11:28:42;;;;;;;4.25;3.85;;;32.10;4.80;;;;;;5076906;28;20044;-56
2022/06/26 11:31:18;;;;;;;3.40;3.10;;;31.90;4.90;;;;;;5069359;28;20404;-58
2022/06/26 11:33:44;;;;;;;6.05;3.63;;;32.00;5.20;;;;;;5065888;28;20024;-56
2022/06/26 11:36:14;;;;;;;4.03;3.00;;;32.20;4.90;;;;;;5070946;28;20056;-57
2022/06/26 11:38:47;;;;;;;3.67;3.03;;;32.40;5.00;;;;;;5065098;28;20166;-57
2022/06/26 11:41:13;;;;;;;3.42;3.13;;;32.30;4.50;;;;;;5061874;28;20039;-58
2022/06/26 11:43:45;;;;;;;2.78;2.58;;;32.30;4.60;;;;;;5090991;28;20396;-57
2022/06/26 11:46:11;;;;;;;3.47;2.92;;;32.40;4.60;;;;;;5074638;28;20043;-55
2022/06/26 11:48:36;;;;;;;2.45;2.25;;;32.50;4.60;;;;;;5088159;28;20040;-55
2022/06/26 11:51:02;;;;;;;3.33;2.55;;;32.50;3.40;;;;;;5068730;28;20409;-58
2022/06/26 11:53:30;;;;;;;2.90;2.70;;;32.50;3.60;;;;;;5086058;28;20032;-54
2022/06/26 11:55:59;;;;;;;2.97;2.67;;;32.50;3.30;;;;;;5073019;28;20111;-56
2022/06/26 11:58:27;;;;;;;2.33;1.98;;;32.30;3.40;;;;;;5091418;28;20048;-57
2022/06/26 12:01:03;;;;;;;4.50;2.50;;;32.30;3.90;;;;;;5073343;28;20024;-55
2022/06/26 12:03:29;;;;;;;2.55;2.03;;;32.30;3.70;;;;;;5087255;28;20745;-56
2022/06/26 12:05:55;;;;;;;2.45;2.25;;;32.30;4.10;;;;;;5071891;28;20035;-57
2022/06/26 12:08:20;;;;;;;2.20;2.00;;;32.20;3.70;;;;;;5083314;28;20036;-57
2022/06/26 12:10:51;;;;;;;2.45;2.20;;;32.30;3.70;;;;;;5077123;28;20027;-56
2022/06/26 12:13:43;;;;;;;5.25;2.33;;;32.30;3.90;;;;;;5082305;28;20538;-57
2022/06/26 12:16:10;;;;;;;2.55;2.17;;;32.10;4.10;;;;;;5064980;28;20424;-57
2022/06/26 12:18:40;;;;;;;2.90;2.60;;;32.00;4.00;;;;;;5073308;28;20048;-57
2022/06/26 12:21:24;;;;;;;2.85;2.25;;;31.90;3.80;;;;;;5072027;28;20146;-57
2022/06/26 12:23:52;;;;;;;2.10;2.00;;;31.80;3.60;;;;;;5069494;28;20036;-57
2022/06/26 12:26:22;;;;;;;3.15;2.42;;;31.70;3.80;;;;;;5083177;28;20031;-56
2022/06/26 12:29:00;;;;;;;2.47;2.03;;;31.60;3.40;;;;;;5095783;28;20341;-56
2022/06/26 12:31:26;;;;;;;2.05;1.90;;;31.50;3.90;;;;;;5080185;28;20447;-57
2022/06/26 12:33:52;;;;;;;3.13;1.95;;;31.40;3.40;;;;;;5091685;28;20522;-57
2022/06/26 12:36:18;;;;;;;2.30;2.10;;;31.50;3.60;;;;;;5072742;28;20040;-57
2022/06/26 12:38:45;;;;;;;2.55;2.28;;;31.50;3.80;;;;;;5091217;28;20075;-57
2022/06/26 12:41:21;;;;;;;2.38;2.17;;;31.40;3.20;;;;;;5072950;28;20055;-57
2022/06/26 12:43:49;;;;;;;4.32;2.55;;;31.60;3.30;;;;;;5079260;28;20109;-56
2022/06/26 12:46:14;;;;;;;2.33;2.13;;;31.80;3.30;;;;;;5073229;28;20037;-57
2022/06/26 12:48:40;;;;;;;2.53;2.33;;;32.00;3.10;;;;;;5086892;28;20093;-56
2022/06/26 12:51:06;;;;;;;3.00;2.70;;;32.00;3.00;;;;;;5072297;28;20029;-57
2022/06/26 12:53:32;;;;;;;2.30;2.10;;;32.00;2.80;;;;;;5087897;28;20033;-55
2022/06/26 12:55:59;;;;;;;4.05;2.47;;;32.30;2.80;;;;;;5083629;28;20044;-57
2022/06/26 12:58:24;;;;;;;3.45;2.42;;;32.50;2.60;;;;;;5088461;28;20495;-57